Terminal Aerodrome Forecast
Issued by NWS

Home | Current Version | Previous Version | Text Only | Print | Product List | Glossary On
Versions: 1 2 3 4 5 6 7 8 9 10 11 12 13 14 15 16 17 18 19 20 21 22 23 24 25
853
FTUS41 KBUF 170903 AAA
TAFJHW
TAF AMD
KJHW 170903Z 1709/1806 15006KT P6SM -RA OVC006
     FM171000 14008KT 2SM -RA OVC006
     FM171800 18012KT 3SM -RA OVC005
     FM172300 22007KT 3SM BR VCSH BKN003
     FM180200 24008KT 5SM -SHRA OVC003
      AMD LTD TO CLD VIS AND WIND=

USA.gov is the U.S. government's official web portal to all federal, state and local government web resources and services.